Gray, Texas
Current Conditions -  °F | °C
As of 9:35 PM on Saturday 22 Nov 2014 (Local Time) from KASL Reporting Station
Overcast Overcast  
Wind Chill: 16°   Ceiling: 900
Heat Index: 16°   Visibility: 0.75mi
Dew Point: 15°   Wind: 6mph
Humidity: 91%   Direction: 280°W
Pressure: 29.87"   Gusts: NA
Location:  32.7902°N, 94.3019°W
Report Text: KASL 230335Z AUTO 28005KT 3/4SM OVC009 16/15 A2987 RMK AO1 P0036 T01600145
Loading
Personal Weather Stations






























Interactive Weather Map New forecast layout! Learn more

10-Day Weather Forecast

Advertisements
Track Severe Weather on mobile